Time;durP1;ratioP1;P1;durP2;ratioP2;P2;SDS_P1;SDS_P2;PMS_P1;PMS_P2;Temp;Humidity;BMP_temperature;BMP_pressure;BME280_temperature;BME280_humidity;BME280_pressure;Samples;Min_cycle;Max_cycle;Signal;HPM_P1;HPM_P2
2022/12/25 00:00:34;;;;;;;40.63;13.65;;;5.40;99.90;;;;;;5041423;28;20021;-74
2022/12/25 00:03:00;;;;;;;33.67;12.57;;;5.40;99.90;;;;;;5058847;28;20052;-73
2022/12/25 00:05:26;;;;;;;34.78;13.30;;;5.20;99.90;;;;;;5058828;28;20035;-72
2022/12/25 00:07:51;;;;;;;149.05;15.43;;;5.20;99.90;;;;;;5058608;28;20095;-73
2022/12/25 00:10:17;;;;;;;85.43;13.45;;;5.20;99.90;;;;;;5041712;28;20025;-72
2022/12/25 00:12:42;;;;;;;45.17;13.45;;;5.20;99.90;;;;;;5058875;28;20118;-73
2022/12/25 00:15:09;;;;;;;146.95;14.45;;;5.30;99.90;;;;;;5058985;28;20029;-73
2022/12/25 00:17:34;;;;;;;184.80;14.45;;;5.20;99.90;;;;;;5041800;28;21610;-73
2022/12/25 00:20:00;;;;;;;60.03;13.00;;;5.30;99.90;;;;;;5058278;28;20035;-72
2022/12/25 00:22:25;;;;;;;40.13;12.45;;;5.30;99.90;;;;;;5058501;28;20025;-71
2022/12/25 00:24:51;;;;;;;32.25;12.95;;;5.40;99.90;;;;;;5058218;28;20025;-72
2022/12/25 00:27:16;;;;;;;42.35;13.38;;;5.30;99.90;;;;;;5060727;28;20056;-71
2022/12/25 00:29:42;;;;;;;31.58;13.18;;;5.30;99.90;;;;;;5063002;28;20093;-72
2022/12/25 00:32:08;;;;;;;29.48;12.45;;;5.30;99.90;;;;;;5045865;28;20044;-71
2022/12/25 00:34:33;;;;;;;36.22;12.70;;;5.20;99.90;;;;;;5062934;28;20025;-71
2022/12/25 00:36:59;;;;;;;34.95;12.60;;;5.20;99.90;;;;;;5046328;28;20033;-72
2022/12/25 00:39:25;;;;;;;45.70;12.48;;;5.20;99.90;;;;;;5045631;28;20084;-70
2022/12/25 00:44:36;;;;;;;33.90;11.30;;;5.20;99.90;;;;;;5052228;28;20043;-71
2022/12/25 00:47:01;;;;;;;37.17;12.18;;;5.40;99.90;;;;;;5057068;28;20068;-72
2022/12/25 00:49:27;;;;;;;31.30;12.27;;;5.30;99.90;;;;;;5057208;28;20021;-72
2022/12/25 00:51:53;;;;;;;76.35;12.52;;;5.50;99.90;;;;;;5051294;28;20053;-71
2022/12/25 00:54:19;;;;;;;97.85;13.15;;;5.40;99.90;;;;;;5045502;28;20044;-72
2022/12/25 00:56:45;;;;;;;117.82;13.73;;;5.40;99.90;;;;;;5060964;28;20052;-71
2022/12/25 00:59:11;;;;;;;79.93;12.27;;;5.40;99.90;;;;;;5053776;28;20022;-73
2022/12/25 01:01:37;;;;;;;27.00;11.95;;;5.50;99.90;;;;;;5035723;28;20392;-73
2022/12/25 01:04:03;;;;;;;33.22;12.32;;;5.40;99.90;;;;;;5059303;28;20032;-73
2022/12/25 01:06:29;;;;;;;37.72;12.40;;;5.40;99.90;;;;;;5045342;28;20059;-71
2022/12/25 01:11:39;;;;;;;30.50;12.43;;;5.40;99.90;;;;;;5053698;28;20032;-72
2022/12/25 01:14:04;;;;;;;38.97;14.15;;;5.40;99.90;;;;;;5052905;28;20029;-71
2022/12/25 01:16:30;;;;;;;33.92;13.10;;;5.30;99.90;;;;;;5044133;28;20108;-72
2022/12/25 01:18:56;;;;;;;34.20;12.75;;;5.20;99.90;;;;;;5043551;28;20031;-72
2022/12/25 01:21:22;;;;;;;48.15;12.77;;;5.30;99.90;;;;;;5052885;28;20068;-72
2022/12/25 01:23:49;;;;;;;31.67;12.50;;;5.30;99.90;;;;;;5052841;28;20017;-71
2022/12/25 01:26:16;;;;;;;54.78;12.82;;;5.40;99.90;;;;;;5052882;28;20044;-75
2022/12/25 01:28:42;;;;;;;43.58;12.77;;;5.40;99.90;;;;;;5036168;28;20021;-73
2022/12/25 01:31:10;;;;;;;39.97;12.63;;;5.40;99.90;;;;;;5052685;28;20042;-70
2022/12/25 01:33:37;;;;;;;49.80;13.88;;;5.40;99.90;;;;;;5040257;28;20025;-71
2022/12/25 01:36:10;;;;;;;57.58;14.02;;;5.40;99.90;;;;;;5045430;28;20025;-72
2022/12/25 01:38:36;;;;;;;49.35;14.07;;;5.40;99.90;;;;;;5062528;28;20033;-71
2022/12/25 01:41:02;;;;;;;39.83;14.23;;;5.40;99.90;;;;;;5051133;28;20112;-72
2022/12/25 01:43:30;;;;;;;46.67;14.75;;;5.40;99.90;;;;;;5060907;28;20025;-71
2022/12/25 01:45:56;;;;;;;49.85;13.98;;;5.40;99.90;;;;;;5060988;28;20022;-72
2022/12/25 01:48:35;;;;;;;40.10;13.68;;;5.40;99.90;;;;;;5060734;28;20048;-70
2022/12/25 01:51:08;;;;;;;67.70;14.18;;;5.40;99.90;;;;;;5058759;28;20048;-71
2022/12/25 01:53:34;;;;;;;51.83;14.75;;;5.40;99.90;;;;;;5061290;28;20017;-72
2022/12/25 01:56:04;;;;;;;49.55;15.43;;;5.40;99.90;;;;;;5061245;28;20049;-71
2022/12/25 01:58:30;;;;;;;75.18;15.68;;;5.40;99.90;;;;;;5060848;28;20017;-70
2022/12/25 02:00:56;;;;;;;72.40;14.30;;;5.40;99.90;;;;;;5043351;28;20017;-71
2022/12/25 02:03:23;;;;;;;101.90;15.43;;;5.30;99.90;;;;;;5051462;28;20029;-71
2022/12/25 02:05:50;;;;;;;58.33;14.98;;;5.40;99.90;;;;;;5053689;28;20025;-72
2022/12/25 02:08:18;;;;;;;55.50;15.40;;;5.40;99.90;;;;;;5034382;28;20041;-71
2022/12/25 02:10:44;;;;;;;48.42;14.73;;;5.40;99.90;;;;;;5043477;28;20096;-70
2022/12/25 02:13:12;;;;;;;45.33;13.65;;;5.40;99.90;;;;;;5052174;28;20045;-72
2022/12/25 02:16:07;;;;;;;45.45;14.30;;;5.40;99.90;;;;;;5052368;28;20025;-70
2022/12/25 02:18:39;;;;;;;;;;;5.30;99.90;;;;;;5058424;28;20093;-72
2022/12/25 02:21:46;;;;;;;59.05;15.80;;;5.40;99.90;;;;;;5061633;28;19917;-71
2022/12/25 02:24:35;;;;;;;53.38;14.25;;;5.40;99.90;;;;;;5058584;28;20030;-71
2022/12/25 02:27:19;;;;;;;60.42;14.93;;;5.30;99.90;;;;;;5055211;28;20043;-71
2022/12/25 02:29:48;;;;;;;59.08;14.00;;;5.30;99.90;;;;;;5053003;28;20028;-73
2022/12/25 02:32:31;;;;;;;91.30;14.52;;;5.30;99.90;;;;;;5054404;28;20024;-72
2022/12/25 02:35:03;;;;;;;68.40;14.90;;;5.30;99.90;;;;;;5051774;28;20051;-71
2022/12/25 02:37:39;;;;;;;66.35;14.48;;;5.40;99.90;;;;;;5051863;28;20416;-70
2022/12/25 02:40:09;;;;;;;58.80;14.50;;;5.30;99.90;;;;;;5051731;28;20021;-69
2022/12/25 03:08:43;;;;;;;57.25;15.38;;;5.20;99.90;;;;;;4972378;28;20042;-70
2022/12/25 03:16:51;;;;;;;56.65;15.70;;;5.20;99.90;;;;;;5051340;28;20092;-71
2022/12/25 03:27:38;;;;;;;133.15;17.08;;;5.20;99.90;;;;;;5052072;28;20051;-70
2022/12/25 03:32:57;;;;;;;86.32;16.42;;;5.20;99.90;;;;;;5047511;28;20059;-74
2022/12/25 03:35:43;;;;;;;;;;;5.20;99.90;;;;;;5050424;28;20085;-71
2022/12/25 04:36:54;;;;;;;247.35;19.92;;;4.90;99.90;;;;;;5047514;28;20155;-72
2022/12/25 04:39:20;;;;;;;307.95;21.63;;;4.90;99.90;;;;;;5057806;28;20025;-72
2022/12/25 04:41:45;;;;;;;282.00;19.67;;;4.90;99.90;;;;;;5047138;28;20118;-72
2022/12/25 04:44:11;;;;;;;256.25;18.30;;;5.00;99.90;;;;;;5050706;28;20044;-72
2022/12/25 04:46:37;;;;;;;252.75;20.38;;;4.80;99.90;;;;;;5045855;28;20055;-73
2022/12/25 04:49:02;;;;;;;103.07;16.98;;;4.90;99.90;;;;;;5045623;28;20033;-73
2022/12/25 04:51:28;;;;;;;202.93;20.42;;;4.90;99.90;;;;;;5049704;28;20458;-73
2022/12/25 04:53:54;;;;;;;279.42;20.92;;;4.90;99.90;;;;;;5048852;28;20037;-71
2022/12/25 04:56:21;;;;;;;230.02;18.90;;;4.90;99.90;;;;;;5048812;28;20029;-72
2022/12/25 04:58:47;;;;;;;160.80;18.92;;;4.90;99.90;;;;;;5040560;28;20029;-73
2022/12/25 05:01:13;;;;;;;124.70;17.38;;;4.90;99.90;;;;;;5049458;28;20204;-73
2022/12/25 05:03:39;;;;;;;159.30;17.73;;;4.80;99.90;;;;;;5049166;28;20093;-71
2022/12/25 05:06:06;;;;;;;236.70;18.35;;;5.00;99.90;;;;;;5040080;28;20060;-72
2022/12/25 05:08:33;;;;;;;127.30;16.33;;;4.90;99.90;;;;;;5048949;28;20034;-72
2022/12/25 05:10:59;;;;;;;223.30;18.40;;;4.90;99.90;;;;;;5049578;28;20045;-72
2022/12/25 05:13:25;;;;;;;176.73;18.27;;;4.90;99.90;;;;;;5051846;28;20070;-71
2022/12/25 05:15:50;;;;;;;101.03;15.68;;;4.90;99.90;;;;;;5045071;28;20017;-70
2022/12/25 05:18:17;;;;;;;215.98;16.75;;;4.80;99.90;;;;;;5045041;28;20378;-72
2022/12/25 05:20:51;;;;;;;256.45;17.92;;;4.90;99.90;;;;;;5057119;28;20049;-72
2022/12/25 05:23:16;;;;;;;202.35;17.85;;;4.80;99.90;;;;;;5035139;28;20432;-72
2022/12/25 05:25:42;;;;;;;225.75;17.23;;;4.80;99.90;;;;;;5053486;28;20041;-70
2022/12/25 05:28:08;;;;;;;87.40;16.08;;;4.80;99.90;;;;;;5034912;28;20037;-72
2022/12/25 05:30:33;;;;;;;139.70;16.63;;;4.80;99.90;;;;;;5052411;28;20501;-73
2022/12/25 05:32:59;;;;;;;323.48;18.27;;;4.80;99.90;;;;;;5053312;28;20021;-71
2022/12/25 05:35:25;;;;;;;94.10;16.23;;;4.90;99.90;;;;;;5052507;28;20043;-71
2022/12/25 05:37:50;;;;;;;149.60;15.90;;;4.80;99.90;;;;;;5052918;28;20038;-72
2022/12/25 05:40:16;;;;;;;112.43;15.65;;;4.70;99.90;;;;;;5053102;28;20101;-73
2022/12/25 05:42:42;;;;;;;80.55;14.93;;;4.70;99.90;;;;;;5034826;28;20025;-72
2022/12/25 05:45:11;;;;;;;91.18;15.77;;;4.80;99.90;;;;;;5053453;28;20022;-69
2022/12/25 05:47:37;;;;;;;53.17;15.65;;;4.90;99.90;;;;;;5034743;28;20060;-70
2022/12/25 05:50:03;;;;;;;57.10;16.92;;;4.80;99.90;;;;;;5053465;28;20124;-71
2022/12/25 05:52:33;;;;;;;56.75;16.45;;;4.80;99.90;;;;;;5051698;28;20037;-72
2022/12/25 05:54:59;;;;;;;55.05;16.35;;;4.90;99.90;;;;;;5034190;28;20045;-70
2022/12/25 05:57:27;;;;;;;44.50;15.82;;;4.90;99.90;;;;;;5051636;28;20032;-71
2022/12/25 05:59:53;;;;;;;50.50;16.08;;;4.90;99.90;;;;;;5034651;28;20024;-71
2022/12/25 06:02:18;;;;;;;51.30;16.58;;;5.00;99.90;;;;;;5051908;28;20037;-71
2022/12/25 06:04:44;;;;;;;52.90;17.38;;;5.00;99.90;;;;;;5052335;28;20456;-72
2022/12/25 06:07:09;;;;;;;48.33;16.27;;;5.00;99.90;;;;;;5050941;28;20033;-72
2022/12/25 06:09:35;;;;;;;38.20;15.52;;;5.10;99.90;;;;;;5033795;28;20025;-72
2022/12/25 06:12:01;;;;;;;43.20;16.85;;;5.10;99.90;;;;;;5034964;28;20030;-71
2022/12/25 06:14:27;;;;;;;48.38;15.55;;;5.10;99.90;;;;;;5051466;28;20051;-71
2022/12/25 06:16:53;;;;;;;42.88;15.30;;;5.10;99.90;;;;;;5050837;28;20025;-72
2022/12/25 06:19:19;;;;;;;65.45;15.60;;;5.20;99.90;;;;;;5034135;28;20521;-71
2022/12/25 06:21:45;;;;;;;59.97;16.83;;;5.20;99.90;;;;;;5051523;28;20065;-71
2022/12/25 06:24:11;;;;;;;57.30;17.02;;;5.20;99.90;;;;;;5032531;28;20076;-72
2022/12/25 06:26:36;;;;;;;50.42;17.00;;;5.20;99.90;;;;;;5051349;28;20067;-72
2022/12/25 06:29:04;;;;;;;60.58;15.65;;;5.30;99.90;;;;;;5051827;28;20073;-72
2022/12/25 06:31:29;;;;;;;67.88;18.10;;;5.20;99.90;;;;;;5050785;28;20469;-71
2022/12/25 06:33:55;;;;;;;57.33;16.80;;;5.30;99.90;;;;;;5050891;28;20021;-71
2022/12/25 06:36:23;;;;;;;47.97;15.40;;;5.30;99.90;;;;;;5033374;28;20029;-71
2022/12/25 06:38:49;;;;;;;45.00;15.65;;;5.30;99.90;;;;;;5050373;28;20021;-72
2022/12/25 06:41:18;;;;;;;46.55;16.02;;;5.30;99.90;;;;;;5051405;28;20116;-71
2022/12/25 06:44:02;;;;;;;51.70;15.68;;;5.30;99.90;;;;;;5051410;28;20025;-71
2022/12/25 06:46:29;;;;;;;46.17;15.45;;;5.40;99.90;;;;;;5032200;28;20470;-71
2022/12/25 06:48:55;;;;;;;43.10;15.52;;;5.30;99.90;;;;;;5051822;28;20064;-70
2022/12/25 06:51:24;;;;;;;44.47;14.98;;;5.40;99.90;;;;;;5050556;28;20484;-73
2022/12/25 06:53:51;;;;;;;48.63;16.55;;;5.50;99.90;;;;;;5030959;28;20021;-71
2022/12/25 06:56:19;;;;;;;38.88;14.57;;;5.50;99.90;;;;;;5045157;28;20026;-68
2022/12/25 06:59:06;;;;;;;38.75;14.32;;;5.50;99.90;;;;;;5051011;28;20507;-69
2022/12/25 07:01:52;;;;;;;50.78;15.95;;;5.50;99.90;;;;;;5033867;28;20024;-68
2022/12/25 07:04:46;;;;;;;53.28;15.77;;;5.60;99.90;;;;;;5027493;28;20037;-70
2022/12/25 07:07:55;;;;;;;42.58;15.02;;;5.60;99.90;;;;;;5029793;28;20049;-70
2022/12/25 07:10:52;;;;;;;41.13;13.50;;;5.60;99.90;;;;;;5009195;28;20097;-68
2022/12/25 07:13:28;;;;;;;42.38;14.57;;;5.60;99.90;;;;;;4995770;28;20448;-70
2022/12/25 07:16:04;;;;;;;45.58;14.07;;;5.60;99.90;;;;;;5041078;28;20067;-70
2022/12/25 07:18:30;;;;;;;46.58;16.00;;;5.70;99.90;;;;;;5045162;28;20147;-70
2022/12/25 07:20:58;;;;;;;51.03;16.25;;;5.70;99.90;;;;;;5012492;28;20049;-71
2022/12/25 07:23:25;;;;;;;46.90;13.70;;;5.70;99.90;;;;;;5034121;28;20239;-70
2022/12/25 07:25:58;;;;;;;38.67;12.57;;;5.70;99.90;;;;;;5041112;28;20431;-69
2022/12/25 07:28:25;;;;;;;47.47;13.77;;;5.70;99.90;;;;;;5036998;28;20049;-69
2022/12/25 07:30:51;;;;;;;37.97;13.48;;;5.70;99.90;;;;;;5038784;28;20044;-70
2022/12/25 07:33:17;;;;;;;41.90;13.52;;;5.80;99.90;;;;;;5039782;28;20466;-69
2022/12/25 07:35:42;;;;;;;46.45;13.98;;;5.70;99.90;;;;;;5035908;28;20029;-70
2022/12/25 07:38:08;;;;;;;40.25;12.55;;;5.80;99.90;;;;;;5038729;28;20037;-70
2022/12/25 07:40:34;;;;;;;43.00;12.95;;;5.70;99.90;;;;;;5040191;28;20108;-70
2022/12/25 07:43:00;;;;;;;45.58;12.43;;;5.70;99.90;;;;;;5023312;28;20075;-69
2022/12/25 07:45:25;;;;;;;44.13;12.35;;;5.80;99.90;;;;;;5041325;28;20116;-69
2022/12/25 07:47:51;;;;;;;42.63;13.00;;;5.80;99.90;;;;;;5039788;28;20037;-70
2022/12/25 07:50:17;;;;;;;48.42;12.43;;;5.80;99.90;;;;;;5040664;28;20034;-71
2022/12/25 07:52:42;;;;;;;38.58;13.30;;;5.80;99.90;;;;;;5023265;28;20055;-70
2022/12/25 07:55:09;;;;;;;51.90;13.90;;;5.80;99.90;;;;;;5040741;28;20106;-70
2022/12/25 07:57:35;;;;;;;37.03;12.75;;;5.80;99.90;;;;;;5022614;28;20056;-70
2022/12/25 08:00:02;;;;;;;39.25;13.38;;;5.90;99.90;;;;;;5040000;28;20034;-68
2022/12/25 08:02:28;;;;;;;42.15;13.18;;;5.90;99.90;;;;;;5022163;28;20040;-68
2022/12/25 08:04:54;;;;;;;50.15;12.38;;;5.90;99.90;;;;;;5039734;28;20033;-70
2022/12/25 08:07:20;;;;;;;42.50;12.20;;;5.90;99.90;;;;;;5040334;28;20049;-70
2022/12/25 08:09:46;;;;;;;46.05;13.02;;;6.00;99.90;;;;;;5040183;28;20121;-70
2022/12/25 08:12:11;;;;;;;33.70;11.55;;;6.00;99.90;;;;;;5040582;28;20030;-69
2022/12/25 08:14:37;;;;;;;36.58;11.38;;;6.00;99.90;;;;;;5038979;28;20619;-69
2022/12/25 08:17:03;;;;;;;42.20;11.55;;;6.00;99.90;;;;;;5040280;28;20029;-69
2022/12/25 08:19:28;;;;;;;44.45;11.98;;;6.00;99.90;;;;;;5039798;28;20025;-70
2022/12/25 08:21:54;;;;;;;42.55;12.73;;;6.00;99.90;;;;;;5045881;28;20122;-69
2022/12/25 08:24:20;;;;;;;35.03;12.30;;;6.10;99.90;;;;;;5058403;28;20036;-70
2022/12/25 08:26:46;;;;;;;42.75;11.80;;;6.10;99.90;;;;;;5053448;28;20038;-71
2022/12/25 08:29:11;;;;;;;35.33;12.02;;;6.10;99.90;;;;;;5055385;28;20025;-69
2022/12/25 08:31:37;;;;;;;31.75;11.45;;;6.00;99.90;;;;;;5056890;28;20025;-69
2022/12/25 08:34:03;;;;;;;44.67;12.02;;;6.00;99.90;;;;;;5057449;28;20096;-69
2022/12/25 08:36:29;;;;;;;39.03;12.93;;;6.00;99.90;;;;;;5040568;28;20025;-68
2022/12/25 08:38:55;;;;;;;41.55;12.93;;;6.00;99.90;;;;;;5058258;28;20397;-68
2022/12/25 08:41:21;;;;;;;42.08;12.18;;;6.10;99.90;;;;;;5058869;28;20029;-69
2022/12/25 08:43:46;;;;;;;36.90;13.18;;;6.10;99.90;;;;;;5051239;28;20037;-70
2022/12/25 08:46:12;;;;;;;35.65;12.30;;;6.10;99.90;;;;;;5046942;28;20033;-68
2022/12/25 08:48:41;;;;;;;52.55;12.27;;;6.30;99.90;;;;;;5040304;28;20037;-68
2022/12/25 08:51:17;;;;;;;46.83;12.82;;;6.20;99.90;;;;;;5062551;28;20021;-69
2022/12/25 08:53:45;;;;;;;46.20;11.40;;;6.20;99.90;;;;;;5052926;28;20029;-69
2022/12/25 08:56:12;;;;;;;42.53;12.63;;;6.20;99.90;;;;;;5053179;28;20044;-69
2022/12/25 08:58:38;;;;;;;42.03;12.50;;;6.20;99.90;;;;;;5054137;28;20053;-69
2022/12/25 09:01:04;;;;;;;54.88;13.05;;;6.20;99.90;;;;;;5038732;28;20033;-68
2022/12/25 09:03:33;;;;;;;44.25;12.25;;;6.30;99.90;;;;;;5061881;28;20025;-68
2022/12/25 09:06:08;;;;;;;38.45;11.80;;;6.30;99.90;;;;;;5061898;28;20054;-68
2022/12/25 09:08:35;;;;;;;40.78;12.85;;;6.30;99.90;;;;;;5062026;28;20473;-70
2022/12/25 09:11:06;;;;;;;46.47;11.90;;;6.30;99.90;;;;;;5057406;28;20037;-68
2022/12/25 09:13:32;;;;;;;40.10;11.55;;;6.40;99.90;;;;;;5061607;28;20027;-68
2022/12/25 09:15:58;;;;;;;39.53;12.75;;;6.40;99.90;;;;;;5062393;28;20041;-70
2022/12/25 09:18:24;;;;;;;37.78;11.25;;;6.40;99.90;;;;;;5062027;28;20073;-68
2022/12/25 09:20:57;;;;;;;40.20;12.05;;;6.50;99.90;;;;;;5058652;28;20057;-69
2022/12/25 09:23:23;;;;;;;46.65;12.52;;;6.50;99.90;;;;;;5051298;28;20040;-69
2022/12/25 09:25:48;;;;;;;37.75;10.77;;;6.60;99.90;;;;;;5051012;28;20032;-68
2022/12/25 09:28:14;;;;;;;37.13;11.07;;;6.60;99.90;;;;;;5049009;28;20030;-69
2022/12/25 09:30:39;;;;;;;26.77;10.70;;;6.60;99.90;;;;;;5051812;28;20131;-68
2022/12/25 09:33:06;;;;;;;34.17;10.70;;;6.70;99.90;;;;;;5047451;28;20041;-67
2022/12/25 09:35:32;;;;;;;43.63;11.50;;;6.70;99.90;;;;;;5047772;28;20024;-68
2022/12/25 09:37:57;;;;;;;37.53;10.80;;;6.80;99.90;;;;;;5031176;28;20029;-68
2022/12/25 09:40:27;;;;;;;39.53;11.02;;;6.80;99.90;;;;;;5048622;28;20780;-69
2022/12/25 09:42:54;;;;;;;39.58;10.80;;;6.80;99.90;;;;;;5042427;28;20033;-68
2022/12/25 09:45:24;;;;;;;34.38;10.88;;;6.80;99.90;;;;;;5043594;28;20059;-70
2022/12/25 09:47:54;;;;;;;32.95;10.38;;;6.90;99.90;;;;;;5031567;28;20029;-70
2022/12/25 09:50:46;;;;;;;45.40;11.32;;;6.90;99.90;;;;;;5045767;28;20040;-69
2022/12/25 09:53:17;;;;;;;42.15;11.77;;;6.90;99.90;;;;;;5032427;28;20093;-69
2022/12/25 09:56:07;;;;;;;34.42;11.32;;;6.90;99.90;;;;;;5039557;28;20033;-70
2022/12/25 09:58:33;;;;;;;40.67;11.30;;;6.90;99.90;;;;;;5032262;28;20030;-68
2022/12/25 10:01:15;;;;;;;36.95;11.30;;;6.90;99.90;;;;;;5039988;28;20052;-68
2022/12/25 10:04:06;;;;;;;35.63;12.02;;;7.00;99.90;;;;;;5042936;28;20022;-69
2022/12/25 10:06:43;;;;;;;29.75;10.88;;;7.00;99.90;;;;;;5046287;28;20021;-71
2022/12/25 10:09:09;;;;;;;37.42;11.43;;;7.00;99.90;;;;;;5045435;28;20110;-69
2022/12/25 10:12:08;;;;;;;40.15;11.50;;;7.00;99.90;;;;;;5041837;28;20033;-69
2022/12/25 10:15:00;;;;;;;39.72;10.65;;;7.00;99.90;;;;;;5028097;28;20113;-69
2022/12/25 10:17:35;;;;;;;32.22;10.38;;;7.00;99.90;;;;;;4991907;28;20105;-69
2022/12/25 10:20:09;;;;;;;35.85;10.75;;;7.00;99.90;;;;;;5040828;28;20402;-69
2022/12/25 10:22:37;;;;;;;;;;;7.00;99.90;;;;;;5060294;28;20029;-70
2022/12/25 10:25:05;;;;;;;45.97;11.07;;;7.00;99.90;;;;;;5060595;28;20078;-69
2022/12/25 10:27:38;;;;;;;35.50;11.25;;;7.00;99.90;;;;;;5059451;28;20123;-69
2022/12/25 10:30:16;;;;;;;31.90;11.23;;;7.00;99.90;;;;;;5043654;28;20062;-69
2022/12/25 10:32:43;;;;;;;28.77;11.48;;;7.00;99.90;;;;;;5041822;28;20025;-70
2022/12/25 10:35:18;;;;;;;29.83;9.98;;;7.10;99.90;;;;;;5058791;28;20036;-70
2022/12/25 10:37:57;;;;;;;30.27;11.35;;;7.10;99.90;;;;;;5059580;28;20024;-70
2022/12/25 10:40:23;;;;;;;33.10;10.10;;;7.10;99.90;;;;;;5042269;28;20032;-68
2022/12/25 10:42:57;;;;;;;38.65;10.68;;;7.10;99.90;;;;;;5058791;28;20063;-68
2022/12/25 10:45:23;;;;;;;40.38;11.23;;;7.10;99.90;;;;;;5057959;28;20078;-68
2022/12/25 10:47:48;;;;;;;29.70;11.50;;;7.10;99.90;;;;;;5059276;28;20409;-68
2022/12/25 10:50:22;;;;;;;32.30;11.27;;;7.10;99.90;;;;;;5059748;28;20029;-68
2022/12/25 10:53:03;;;;;;;33.77;11.10;;;7.10;99.90;;;;;;5060178;28;20035;-69
2022/12/25 10:55:28;;;;;;;35.72;11.18;;;7.10;99.90;;;;;;5057804;28;20290;-69
2022/12/25 10:57:54;;;;;;;36.10;11.95;;;7.10;99.90;;;;;;5060097;28;20029;-68
2022/12/25 11:00:22;;;;;;;30.45;10.27;;;7.10;99.90;;;;;;5042637;28;20029;-69
2022/12/25 11:02:48;;;;;;;27.63;10.07;;;7.10;99.90;;;;;;5058135;28;20048;-69
2022/12/25 11:05:35;;;;;;;31.98;10.30;;;7.10;99.90;;;;;;5057200;28;20025;-67
2022/12/25 11:08:01;;;;;;;32.50;10.55;;;7.20;99.90;;;;;;5059141;28;20033;-68
2022/12/25 11:10:34;;;;;;;34.88;11.02;;;7.20;99.90;;;;;;5056867;28;20040;-69
2022/12/25 11:13:01;;;;;;;33.72;10.13;;;7.20;99.90;;;;;;5058980;28;20037;-68
2022/12/25 11:15:46;;;;;;;36.70;11.30;;;7.20;99.90;;;;;;5059236;28;20025;-67
2022/12/25 11:18:28;;;;;;;27.08;9.82;;;7.20;99.90;;;;;;5058740;28;20043;-68
2022/12/25 11:20:56;;;;;;;25.52;10.52;;;7.20;99.90;;;;;;5049199;28;20041;-68
2022/12/25 11:23:24;;;;;;;42.45;10.55;;;7.30;99.90;;;;;;5040549;28;20542;-69
2022/12/25 11:26:00;;;;;;;29.40;10.48;;;7.20;99.90;;;;;;5040964;28;20029;-69
2022/12/25 11:28:28;;;;;;;20.92;9.90;;;7.30;99.90;;;;;;5038986;28;20021;-68
2022/12/25 11:30:58;;;;;;;30.80;11.23;;;7.30;99.90;;;;;;5038589;28;20113;-69
2022/12/25 11:33:29;;;;;;;33.60;10.85;;;7.20;99.90;;;;;;5039403;28;20110;-68
2022/12/25 11:35:56;;;;;;;28.17;9.77;;;7.20;99.90;;;;;;5040292;28;20037;-67
2022/12/25 11:38:23;;;;;;;38.65;11.32;;;7.30;99.90;;;;;;5040479;28;20030;-66
2022/12/25 11:40:57;;;;;;;29.60;11.52;;;7.30;99.90;;;;;;5036191;28;20034;-67
2022/12/25 11:43:29;;;;;;;29.98;11.45;;;7.30;99.90;;;;;;5039059;28;20034;-69
2022/12/25 11:46:05;;;;;;;28.63;10.85;;;7.30;99.90;;;;;;5037380;28;20483;-67
2022/12/25 11:48:38;;;;;;;34.03;10.60;;;7.40;99.90;;;;;;5035073;28;20046;-68
2022/12/25 11:51:05;;;;;;;27.75;10.38;;;7.40;99.90;;;;;;5020564;28;20595;-68
2022/12/25 11:53:38;;;;;;;31.73;11.88;;;7.40;99.90;;;;;;5036967;28;20085;-68
2022/12/25 11:56:12;;;;;;;25.90;10.50;;;7.40;99.90;;;;;;5037136;28;20031;-67
2022/12/25 11:58:48;;;;;;;24.88;10.02;;;7.50;99.90;;;;;;5040520;28;20379;-69
2022/12/25 12:01:29;;;;;;;27.83;10.13;;;7.50;99.90;;;;;;5040776;28;20470;-67
2022/12/25 12:03:57;;;;;;;29.25;9.82;;;7.50;99.90;;;;;;5041258;28;20081;-67
2022/12/25 12:06:50;;;;;;;28.15;9.88;;;7.50;99.90;;;;;;5039559;28;20038;-68
2022/12/25 12:09:40;;;;;;;30.45;10.20;;;7.50;99.90;;;;;;5040592;28;20037;-68
2022/12/25 12:12:17;;;;;;;22.88;10.32;;;7.50;99.90;;;;;;5040813;28;20085;-67
2022/12/25 12:14:59;;;;;;;28.20;10.35;;;7.50;99.90;;;;;;5040485;28;20021;-69
2022/12/25 12:17:25;;;;;;;28.70;10.25;;;7.60;99.90;;;;;;5036966;28;20033;-67
2022/12/25 12:19:51;;;;;;;30.48;9.75;;;7.50;99.90;;;;;;5037817;28;20022;-67
2022/12/25 12:22:23;;;;;;;30.50;9.93;;;7.60;99.90;;;;;;5058893;28;20123;-69
2022/12/25 12:24:58;;;;;;;27.35;10.15;;;7.60;99.90;;;;;;5064564;28;20062;-68
2022/12/25 12:27:34;;;;;;;36.85;11.02;;;7.60;99.90;;;;;;5061599;28;21057;-69
2022/12/25 12:30:01;;;;;;;31.85;10.25;;;7.60;99.90;;;;;;5063417;28;20096;-68
2022/12/25 12:32:32;;;;;;;25.63;10.30;;;7.60;99.90;;;;;;5061192;28;20044;-68
2022/12/25 12:34:59;;;;;;;33.33;10.73;;;7.60;99.90;;;;;;5064534;28;20033;-69
2022/12/25 12:37:30;;;;;;;31.58;9.65;;;7.60;99.90;;;;;;5063009;28;20469;-68
2022/12/25 12:39:56;;;;;;;27.60;10.20;;;7.60;99.90;;;;;;5064274;28;20028;-67
2022/12/25 12:42:27;;;;;;;31.63;12.27;;;7.60;99.90;;;;;;5062485;28;20017;-69
2022/12/25 12:44:55;;;;;;;34.47;13.10;;;7.60;99.90;;;;;;5044163;28;20097;-69
2022/12/25 12:47:29;;;;;;;31.55;12.70;;;7.60;99.90;;;;;;5044949;28;20047;-69
2022/12/25 12:49:59;;;;;;;34.23;12.23;;;7.60;99.90;;;;;;5062261;28;20040;-69
2022/12/25 12:52:35;;;;;;;29.35;11.68;;;7.60;99.90;;;;;;5063391;28;20029;-66
2022/12/25 12:55:13;;;;;;;30.08;11.90;;;7.60;99.90;;;;;;5063121;28;20076;-68
2022/12/25 12:57:39;;;;;;;32.58;12.07;;;7.60;99.90;;;;;;5063086;28;20029;-68
2022/12/25 13:00:18;;;;;;;32.80;12.07;;;7.60;99.90;;;;;;5063491;28;20151;-69
2022/12/25 13:03:05;;;;;;;35.03;12.55;;;7.60;99.90;;;;;;5063843;28;20032;-69
2022/12/25 13:05:38;;;;;;;29.17;11.32;;;7.60;99.90;;;;;;5062944;28;20032;-68
2022/12/25 13:08:29;;;;;;;29.70;11.77;;;7.60;99.90;;;;;;5045412;28;20047;-69
2022/12/25 13:11:16;;;;;;;28.33;12.18;;;7.60;99.90;;;;;;5062419;28;20025;-68
2022/12/25 13:13:44;;;;;;;33.63;11.60;;;7.60;99.90;;;;;;5063262;28;20028;-68
2022/12/25 13:16:25;;;;;;;26.35;10.70;;;7.60;99.90;;;;;;5063047;28;20010;-68
2022/12/25 13:18:53;;;;;;;29.73;11.50;;;7.50;99.90;;;;;;5062864;28;20052;-70
2022/12/25 13:21:22;;;;;;;26.25;10.57;;;7.50;99.90;;;;;;5050294;28;20041;-70
2022/12/25 13:23:58;;;;;;;30.58;11.32;;;7.50;99.90;;;;;;5022765;28;20033;-69
2022/12/25 13:26:24;;;;;;;35.05;11.50;;;7.50;99.90;;;;;;5039907;28;20021;-69
2022/12/25 13:28:50;;;;;;;36.17;11.77;;;7.50;99.90;;;;;;5039528;28;20052;-70
2022/12/25 13:31:18;;;;;;;32.50;11.73;;;7.60;99.90;;;;;;5041418;28;20021;-69
2022/12/25 13:33:49;;;;;;;31.48;12.57;;;7.60;99.90;;;;;;5039456;28;20045;-68
2022/12/25 13:36:16;;;;;;;27.08;11.50;;;7.50;99.90;;;;;;5023885;28;20120;-69
2022/12/25 13:38:48;;;;;;;26.23;11.65;;;7.60;99.90;;;;;;5039999;28;20800;-69
2022/12/25 13:44:19;;;;;;;39.22;11.75;;;7.60;99.90;;;;;;5040845;28;20036;-69
2022/12/25 13:46:45;;;;;;;24.98;11.90;;;7.60;99.90;;;;;;5039451;28;20060;-69
2022/12/25 13:49:20;;;;;;;27.10;13.18;;;7.60;99.90;;;;;;5039518;28;20037;-67
2022/12/25 13:51:47;;;;;;;36.70;13.02;;;7.60;99.90;;;;;;5040407;28;20051;-70
2022/12/25 13:54:14;;;;;;;34.00;12.90;;;7.60;99.90;;;;;;5040917;28;20025;-68
2022/12/25 13:56:52;;;;;;;31.55;12.63;;;7.60;99.90;;;;;;5041249;28;20022;-68
2022/12/25 13:59:20;;;;;;;32.20;12.98;;;7.60;99.90;;;;;;5034508;28;20084;-69
2022/12/25 14:01:48;;;;;;;29.02;12.98;;;7.60;99.90;;;;;;5038889;28;20028;-69
2022/12/25 14:04:22;;;;;;;35.63;13.85;;;7.60;99.90;;;;;;5038981;28;20029;-69
2022/12/25 14:06:55;;;;;;;34.40;14.20;;;7.60;99.90;;;;;;5035936;28;20052;-68
2022/12/25 14:09:22;;;;;;;40.67;14.25;;;7.60;99.90;;;;;;5039065;28;20034;-67
2022/12/25 14:11:52;;;;;;;32.35;12.75;;;7.60;99.90;;;;;;5022093;28;20069;-69
2022/12/25 14:14:25;;;;;;;30.23;13.00;;;7.60;99.90;;;;;;5039630;28;20025;-71
2022/12/25 14:16:55;;;;;;;35.83;13.35;;;7.60;99.90;;;;;;5038938;28;20038;-70
2022/12/25 14:19:28;;;;;;;35.70;13.20;;;7.60;99.90;;;;;;5038857;28;20394;-69
2022/12/25 14:22:20;;;;;;;31.67;12.40;;;7.60;99.90;;;;;;5040746;28;20418;-68
2022/12/25 14:24:46;;;;;;;33.33;12.30;;;7.60;99.90;;;;;;5018899;28;20034;-69
2022/12/25 14:27:31;;;;;;;34.40;13.05;;;7.60;99.90;;;;;;5036968;28;20367;-67
2022/12/25 14:29:59;;;;;;;29.42;12.35;;;7.60;99.90;;;;;;5019444;28;20026;-69
2022/12/25 14:32:27;;;;;;;27.52;12.38;;;7.60;99.90;;;;;;5040567;28;20510;-68
2022/12/25 14:35:01;;;;;;;29.10;11.52;;;7.60;99.90;;;;;;5022836;28;20021;-68
2022/12/25 14:37:29;;;;;;;29.80;11.48;;;7.60;99.90;;;;;;5039113;28;20034;-68
2022/12/25 14:40:05;;;;;;;31.60;10.95;;;7.60;99.90;;;;;;5039097;28;20033;-69
2022/12/25 14:42:33;;;;;;;27.60;11.50;;;7.60;99.90;;;;;;5022130;28;20405;-69